Time,TemperatureF,DewpointF,PressureIn,WindDirection,WindDirectionDegrees,WindSpeedMPH,WindSpeedGustMPH,Humidity,HourlyPrecipIn,Conditions,Clouds,dailyrainin,SoftwareType,DateUTC
2013-05-27 00:02:00,58.0,-99.9,-100.00,WNW,293,6.0,9.0,-999,-99.99,,,-99.99,,2013-05-27 07:02:00,
2013-05-27 00:11:00,58.0,-99.9,-100.00,WNW,293,6.0,9.0,-999,-99.99,,,-99.99,,2013-05-27 07:11:00,
2013-05-27 01:02:00,58.0,-99.9,-100.00,West,272,8.0,14.0,-999,-99.99,,,-99.99,,2013-05-27 08:02:00,
2013-05-27 01:12:00,58.0,-99.9,-100.00,West,272,8.0,14.0,-999,-99.99,,,-99.99,,2013-05-27 08:12:00,
2013-05-27 02:02:00,55.0,-99.9,-100.00,WSW,249,5.0,7.0,-999,-99.99,,,-99.99,,2013-05-27 09:02:00,
2013-05-27 02:11:00,55.0,-99.9,-100.00,WSW,249,5.0,7.0,-999,-99.99,,,-99.99,,2013-05-27 09:11:00,
2013-05-27 03:03:00,54.0,-99.9,-100.00,SW,223,3.0,6.0,-999,-99.99,,,-99.99,,2013-05-27 10:03:00,
2013-05-27 03:12:00,54.0,-99.9,-100.00,SW,223,3.0,6.0,-999,-99.99,,,-99.99,,2013-05-27 10:12:00,
2013-05-27 03:53:00,53.0,-99.9,-100.00,WNW,285,6.0,12.0,-999,-99.99,,,-99.99,,2013-05-27 10:53:00,
2013-05-27 04:02:00,53.0,-99.9,-100.00,WNW,285,6.0,12.0,-999,-99.99,,,-99.99,,2013-05-27 11:02:00,
2013-05-27 04:12:00,53.0,-99.9,-100.00,WNW,285,6.0,12.0,-999,-99.99,,,-99.99,,2013-05-27 11:12:00,
2013-05-27 05:02:00,54.0,-99.9,-100.00,SW,215,3.0,7.0,-999,-99.99,,,-99.99,,2013-05-27 12:02:00,
2013-05-27 05:12:00,54.0,-99.9,-100.00,SW,215,3.0,7.0,-999,-99.99,,,-99.99,,2013-05-27 12:12:00,
2013-05-27 06:02:00,50.0,-99.9,-100.00,WNW,297,2.0,3.0,-999,-99.99,,,-99.99,,2013-05-27 13:02:00,
2013-05-27 06:11:00,50.0,-99.9,-100.00,WNW,297,2.0,3.0,-999,-99.99,,,-99.99,,2013-05-27 13:11:00,
2013-05-27 07:02:00,54.0,-99.9,-100.00,NNE,21,2.0,5.0,-999,-99.99,,,-99.99,,2013-05-27 14:02:00,
2013-05-27 07:11:00,54.0,-99.9,-100.00,NNE,21,2.0,5.0,-999,-99.99,,,-99.99,,2013-05-27 14:11:00,
2013-05-27 08:02:00,58.0,-99.9,-100.00,SE,139,1.0,1.0,-999,-99.99,,,-99.99,,2013-05-27 15:02:00,
2013-05-27 08:12:00,58.0,-99.9,-100.00,SE,139,1.0,1.0,-999,-99.99,,,-99.99,,2013-05-27 15:12:00,
2013-05-27 09:03:00,60.0,-99.9,-100.00,East,89,2.0,5.0,-999,-99.99,,,-99.99,,2013-05-27 16:03:00,
2013-05-27 09:12:00,60.0,-99.9,-100.00,East,89,2.0,5.0,-999,-99.99,,,-99.99,,2013-05-27 16:12:00,
2013-05-27 10:02:00,63.0,-99.9,-100.00,ESE,115,3.0,6.0,-999,-99.99,,,-99.99,,2013-05-27 17:02:00,
2013-05-27 10:12:00,63.0,-99.9,-100.00,ESE,115,3.0,6.0,-999,-99.99,,,-99.99,,2013-05-27 17:12:00,
2013-05-27 11:02:00,64.0,-99.9,-100.00,SW,234,9.0,15.0,-999,-99.99,,,-99.99,,2013-05-27 18:02:00,
2013-05-27 11:12:00,64.0,-99.9,-100.00,SW,234,9.0,15.0,-999,-99.99,,,-99.99,,2013-05-27 18:12:00,
2013-05-27 12:01:00,63.0,-99.9,-100.00,WSW,239,9.0,15.0,-999,-99.99,,,-99.99,,2013-05-27 19:01:00,
2013-05-27 12:11:00,63.0,-99.9,-100.00,WSW,239,9.0,15.0,-999,-99.99,,,-99.99,,2013-05-27 19:11:00,
2013-05-27 13:02:00,62.0,-99.9,-100.00,SW,229,12.0,18.0,-999,-99.99,,,-99.99,,2013-05-27 20:02:00,
2013-05-27 13:11:00,62.0,-99.9,-100.00,SW,229,12.0,18.0,-999,-99.99,,,-99.99,,2013-05-27 20:11:00,
2013-05-27 13:53:00,60.0,-99.9,-100.00,SSW,213,10.0,17.0,-999,-99.99,,,-99.99,,2013-05-27 20:53:00,
2013-05-27 14:02:00,60.0,-99.9,-100.00,SSW,213,10.0,17.0,-999,-99.99,,,-99.99,,2013-05-27 21:02:00,
2013-05-27 14:12:00,60.0,-99.9,-100.00,SSW,213,10.0,17.0,-999,-99.99,,,-99.99,,2013-05-27 21:12:00,
2013-05-27 14:53:00,60.0,-99.9,-100.00,SSW,196,12.0,18.0,-999,-99.99,,,-99.99,,2013-05-27 21:53:00,
2013-05-27 15:03:00,60.0,-99.9,-100.00,SSW,196,12.0,18.0,-999,-99.99,,,-99.99,,2013-05-27 22:03:00,
2013-05-27 15:13:00,60.0,-99.9,-100.00,SSW,196,12.0,18.0,-999,-99.99,,,-99.99,,2013-05-27 22:13:00,
2013-05-27 16:02:00,60.0,-99.9,-100.00,SE,143,8.0,12.0,-999,-99.99,,,-99.99,,2013-05-27 23:02:00,
2013-05-27 16:12:00,60.0,-99.9,-100.00,SE,143,8.0,12.0,-999,-99.99,,,-99.99,,2013-05-27 23:12:00,
2013-05-27 17:02:00,59.0,-99.9,-100.00,SSE,160,7.0,12.0,-999,-99.99,,,-99.99,,2013-05-28 00:02:00,
2013-05-27 17:12:00,59.0,-99.9,-100.00,SSE,160,7.0,12.0,-999,-99.99,,,-99.99,,2013-05-28 00:12:00,
2013-05-27 18:01:00,59.0,-99.9,-100.00,SSE,167,6.0,12.0,-999,-99.99,,,-99.99,,2013-05-28 01:01:00,
2013-05-27 18:11:00,59.0,-99.9,-100.00,SSE,167,6.0,12.0,-999,-99.99,,,-99.99,,2013-05-28 01:11:00,
2013-05-27 18:52:00,58.0,-99.9,-100.00,SSE,161,3.0,6.0,-999,-99.99,,,-99.99,,2013-05-28 01:52:00,
2013-05-27 19:02:00,58.0,-99.9,-100.00,SSE,161,3.0,6.0,-999,-99.99,,,-99.99,,2013-05-28 02:02:00,
2013-05-27 19:11:00,58.0,-99.9,-100.00,SSE,161,3.0,6.0,-999,-99.99,,,-99.99,,2013-05-28 02:11:00,
2013-05-27 21:03:00,59.0,-99.9,-100.00,East,96,6.0,9.0,-999,-99.99,,,-99.99,,2013-05-28 04:03:00,
2013-05-27 21:13:00,59.0,-99.9,-100.00,East,96,6.0,9.0,-999,-99.99,,,-99.99,,2013-05-28 04:13:00,
2013-05-27 22:02:00,58.0,-99.9,-100.00,East,96,3.0,6.0,-999,-99.99,,,-99.99,,2013-05-28 05:02:00,
2013-05-27 22:12:00,58.0,-99.9,-100.00,East,96,3.0,6.0,-999,-99.99,,,-99.99,,2013-05-28 05:12:00,
2013-05-27 23:02:00,56.0,-99.9,-100.00,NNE,27,1.0,2.0,-999,-99.99,,,-99.99,,2013-05-28 06:02:00,
2013-05-27 23:12:00,56.0,-99.9,-100.00,NNE,27,1.0,2.0,-999,-99.99,,,-99.99,,2013-05-28 06:12:00,